Time;durP1;ratioP1;P1;durP2;ratioP2;P2;SDS_P1;SDS_P2;PMS_P1;PMS_P2;Temp;Humidity;BMP_temperature;BMP_pressure;BME280_temperature;BME280_humidity;BME280_pressure;Samples;Min_cycle;Max_cycle;Signal;HPM_P1;HPM_P2
2023/04/12 00:01:34;;;;;;;3.33;1.52;;;16.80;52.30;;;;;;5073026;28;20206;-75
2023/04/12 00:04:01;;;;;;;2.92;1.55;;;16.80;52.30;;;;;;5072860;28;20288;-78
2023/04/12 00:06:31;;;;;;;6.07;1.90;;;16.80;52.30;;;;;;5071856;28;20610;-76
2023/04/12 00:09:00;;;;;;;2.75;1.45;;;16.80;52.30;;;;;;5072806;28;20189;-79
2023/04/12 00:11:28;;;;;;;3.60;1.52;;;16.80;52.30;;;;;;5072498;28;20536;-75
2023/04/12 00:13:54;;;;;;;3.88;1.60;;;16.80;52.30;;;;;;5071815;28;20263;-75
2023/04/12 00:16:19;;;;;;;2.13;1.58;;;16.70;52.30;;;;;;5072313;28;20594;-73
2023/04/12 00:18:45;;;;;;;3.15;1.60;;;16.70;52.30;;;;;;5071305;28;20232;-77
2023/04/12 00:21:11;;;;;;;2.50;1.50;;;16.70;52.30;;;;;;5071285;28;20245;-77
2023/04/12 00:23:39;;;;;;;1.42;1.30;;;16.70;52.40;;;;;;5072294;28;20661;-77
2023/04/12 00:26:05;;;;;;;1.55;1.17;;;16.70;52.40;;;;;;5072259;28;20175;-79
2023/04/12 00:28:30;;;;;;;2.97;1.80;;;16.70;52.40;;;;;;5071549;28;20170;-76
2023/04/12 00:30:56;;;;;;;1.80;1.40;;;16.70;52.40;;;;;;5072612;28;20526;-76
2023/04/12 00:33:21;;;;;;;3.05;1.67;;;16.70;52.40;;;;;;5071987;28;20601;-73
2023/04/12 00:35:47;;;;;;;2.97;1.48;;;16.70;52.40;;;;;;5071615;28;20698;-74
2023/04/12 00:38:14;;;;;;;3.30;1.58;;;16.70;52.40;;;;;;5071996;28;20535;-76
2023/04/12 00:40:42;;;;;;;2.50;1.58;;;16.70;52.50;;;;;;5072244;28;20181;-75
2023/04/12 00:43:14;;;;;;;3.72;2.00;;;16.70;52.50;;;;;;5071056;28;20293;-78
2023/04/12 00:45:40;;;;;;;3.22;1.77;;;16.70;52.50;;;;;;5072179;28;20663;-76
2023/04/12 00:48:05;;;;;;;2.60;1.85;;;16.70;52.50;;;;;;5071109;28;20178;-78
2023/04/12 00:50:31;;;;;;;2.33;1.30;;;16.70;52.60;;;;;;5070946;28;20170;-75
2023/04/12 00:52:57;;;;;;;1.63;1.40;;;16.70;52.60;;;;;;5070156;28;20212;-76
2023/04/12 00:55:23;;;;;;;2.22;1.23;;;16.60;52.60;;;;;;5069681;28;20181;-75
2023/04/12 00:57:48;;;;;;;2.65;1.58;;;16.60;52.60;;;;;;5070700;28;20538;-75
2023/04/12 01:00:15;;;;;;;1.50;1.10;;;16.60;52.60;;;;;;5071859;28;20249;-77
2023/04/12 01:02:45;;;;;;;3.75;1.45;;;16.60;52.60;;;;;;5071462;28;20187;-77
2023/04/12 01:05:13;;;;;;;1.77;1.13;;;16.60;52.60;;;;;;5070391;28;20621;-77
2023/04/12 01:08:04;;;;;;;3.45;1.40;;;16.70;52.70;;;;;;5070732;28;20182;-81
2023/04/12 01:10:45;;;;;;;3.95;1.90;;;16.60;52.70;;;;;;5070935;28;20263;-74
2023/04/12 01:13:33;;;;;;;3.30;1.65;;;16.60;52.70;;;;;;5071597;28;20170;-76
2023/04/12 01:16:14;;;;;;;3.42;1.58;;;16.60;52.70;;;;;;5070696;28;20257;-76
2023/04/12 01:18:40;;;;;;;1.85;1.30;;;16.60;52.80;;;;;;5070607;28;20522;-76
2023/04/12 01:21:14;;;;;;;1.80;1.58;;;16.60;52.90;;;;;;5070249;28;20226;-76
2023/04/12 01:24:12;;;;;;;2.08;1.20;;;16.60;52.80;;;;;;5070174;28;20222;-76
2023/04/12 01:26:41;;;;;;;2.63;1.50;;;16.60;52.90;;;;;;5071823;28;20193;-78
2023/04/12 01:29:14;;;;;;;2.20;1.35;;;16.60;52.90;;;;;;5070146;28;20182;-76
2023/04/12 01:31:44;;;;;;;4.07;1.33;;;16.60;52.90;;;;;;5069911;28;20198;-73
2023/04/12 01:34:10;;;;;;;1.58;1.15;;;16.60;53.00;;;;;;5071319;28;20232;-73
2023/04/12 01:36:36;;;;;;;1.33;0.90;;;16.60;53.00;;;;;;5070523;28;20224;-73
2023/04/12 01:39:03;;;;;;;2.80;1.23;;;16.60;53.00;;;;;;5069723;28;20171;-73
2023/04/12 01:41:29;;;;;;;1.85;1.30;;;16.60;53.00;;;;;;5070189;28;20187;-75
2023/04/12 01:43:55;;;;;;;1.80;1.50;;;16.60;53.10;;;;;;5070314;28;20684;-76
2023/04/12 01:46:21;;;;;;;2.47;1.48;;;16.60;53.10;;;;;;5070613;28;20174;-76
2023/04/12 01:48:49;;;;;;;2.67;1.30;;;16.50;53.00;;;;;;5070417;28;20257;-77
2023/04/12 01:51:27;;;;;;;3.70;1.40;;;16.60;53.10;;;;;;5069337;28;20182;-76
2023/04/12 01:53:59;;;;;;;1.20;1.02;;;16.50;53.10;;;;;;5071484;28;20649;-77
2023/04/12 01:56:26;;;;;;;2.08;1.48;;;16.50;53.10;;;;;;5070002;28;20179;-73
2023/04/12 01:58:52;;;;;;;2.10;1.10;;;16.60;53.20;;;;;;5071040;28;20186;-73
2023/04/12 02:01:18;;;;;;;1.83;1.30;;;16.50;53.20;;;;;;5069894;28;20181;-74
2023/04/12 02:03:44;;;;;;;2.75;1.17;;;16.50;53.20;;;;;;5070074;28;20204;-76
2023/04/12 02:06:10;;;;;;;1.77;1.38;;;16.50;53.30;;;;;;5072388;28;20485;-79
2023/04/12 02:08:36;;;;;;;3.20;1.60;;;16.50;53.30;;;;;;5073711;28;20170;-75
2023/04/12 02:11:08;;;;;;;2.97;1.50;;;16.50;53.30;;;;;;5075142;28;20530;-77
2023/04/12 02:13:33;;;;;;;3.63;1.45;;;16.50;53.30;;;;;;5072931;28;20710;-76
2023/04/12 02:16:01;;;;;;;2.92;1.30;;;16.50;53.30;;;;;;5074738;28;20175;-77
2023/04/12 02:18:27;;;;;;;1.50;1.23;;;16.50;53.90;;;;;;5074651;28;20186;-73
2023/04/12 02:20:53;;;;;;;2.10;1.35;;;16.50;53.30;;;;;;5073772;28;20638;-76
2023/04/12 02:23:18;;;;;;;1.77;1.50;;;16.50;53.40;;;;;;5074669;28;20210;-74
2023/04/12 02:25:45;;;;;;;2.35;1.23;;;16.50;53.40;;;;;;5074682;28;20174;-82
2023/04/12 02:28:12;;;;;;;2.63;1.33;;;16.50;53.40;;;;;;5073999;28;20178;-82
2023/04/12 02:30:37;;;;;;;2.97;1.40;;;16.50;53.40;;;;;;5074631;28;20594;-74
2023/04/12 02:33:04;;;;;;;1.98;1.00;;;16.50;53.40;;;;;;5074711;28;20228;-73
2023/04/12 02:35:30;;;;;;;1.88;1.13;;;16.50;54.10;;;;;;5073673;28;20201;-73
2023/04/12 02:37:56;;;;;;;2.50;1.30;;;16.50;53.40;;;;;;5074464;28;20530;-75
2023/04/12 02:40:22;;;;;;;2.60;1.27;;;16.50;53.50;;;;;;5074714;28;20261;-75
2023/04/12 02:42:47;;;;;;;1.98;1.05;;;16.40;53.40;;;;;;5073852;28;20585;-75
2023/04/12 02:45:13;;;;;;;2.10;1.23;;;16.40;53.40;;;;;;5074162;28;20235;-76
2023/04/12 02:47:39;;;;;;;1.98;1.35;;;16.40;53.50;;;;;;5073562;28;20202;-75
2023/04/12 02:50:05;;;;;;;2.80;1.20;;;16.40;53.50;;;;;;5073977;28;20178;-78
2023/04/12 02:52:31;;;;;;;1.42;1.17;;;16.40;53.50;;;;;;5074401;28;20259;-75
2023/04/12 02:54:57;;;;;;;2.88;1.63;;;16.40;53.50;;;;;;5073700;28;20177;-77
2023/04/12 02:57:23;;;;;;;2.05;1.10;;;16.40;53.60;;;;;;5073808;28;20174;-72
2023/04/12 02:59:52;;;;;;;1.25;1.00;;;16.40;53.60;;;;;;5074241;28;20308;-75
2023/04/12 03:02:19;;;;;;;1.75;1.10;;;16.30;53.50;;;;;;5073072;28;20641;-74
2023/04/12 03:04:45;;;;;;;1.23;1.00;;;16.40;53.60;;;;;;5073794;28;20215;-76
2023/04/12 03:07:12;;;;;;;2.25;1.10;;;16.40;53.60;;;;;;5073619;28;20636;-81
2023/04/12 03:09:37;;;;;;;1.88;1.08;;;16.40;53.60;;;;;;5073383;28;20205;-77
2023/04/12 03:12:03;;;;;;;2.88;1.30;;;16.40;53.60;;;;;;5074106;28;20609;-77
2023/04/12 03:14:29;;;;;;;2.88;1.20;;;16.40;53.60;;;;;;5073595;28;20589;-74
2023/04/12 03:16:55;;;;;;;1.98;1.40;;;16.40;54.30;;;;;;5071868;28;20637;-76
2023/04/12 03:19:20;;;;;;;2.33;1.20;;;16.30;53.60;;;;;;5071749;28;20530;-73
2023/04/12 03:21:46;;;;;;;3.40;1.33;;;16.40;53.60;;;;;;5073423;28;20167;-77
2023/04/12 03:24:12;;;;;;;1.60;1.20;;;16.40;53.70;;;;;;5072781;28;20218;-80
2023/04/12 03:26:38;;;;;;;3.55;1.38;;;16.40;53.60;;;;;;5073592;28;20258;-77
2023/04/12 03:29:04;;;;;;;2.80;1.33;;;16.30;53.70;;;;;;5073864;28;20617;-74
2023/04/12 03:31:30;;;;;;;2.25;1.23;;;16.30;53.70;;;;;;5072520;28;20175;-74
2023/04/12 03:33:55;;;;;;;1.92;0.90;;;16.30;53.60;;;;;;5073159;28;20175;-73
2023/04/12 03:36:21;;;;;;;2.45;1.42;;;16.30;54.30;;;;;;5073295;28;20226;-73
2023/04/12 03:38:46;;;;;;;1.45;1.20;;;16.40;53.80;;;;;;5072505;28;20181;-75
2023/04/12 03:41:12;;;;;;;2.47;1.25;;;16.40;53.80;;;;;;5072924;28;20265;-76
2023/04/12 03:43:37;;;;;;;1.65;1.10;;;16.30;53.70;;;;;;5073178;28;20307;-77
2023/04/12 03:46:03;;;;;;;2.08;1.45;;;16.30;53.70;;;;;;5072355;28;20170;-77
2023/04/12 03:48:29;;;;;;;2.38;1.45;;;16.40;53.80;;;;;;5071538;28;20212;-76
2023/04/12 03:50:55;;;;;;;2.35;1.20;;;16.30;53.80;;;;;;5072515;28;20174;-78
2023/04/12 03:53:20;;;;;;;1.77;1.15;;;16.30;53.80;;;;;;5072801;28;20540;-78
2023/04/12 03:55:46;;;;;;;1.77;1.10;;;16.30;53.80;;;;;;5073075;28;20167;-76
2023/04/12 03:58:15;;;;;;;2.17;1.30;;;16.30;53.90;;;;;;5071918;28;20179;-73
2023/04/12 04:00:41;;;;;;;1.92;1.20;;;16.30;53.90;;;;;;5072845;28;20180;-75
2023/04/12 04:03:07;;;;;;;1.30;1.05;;;16.30;53.90;;;;;;5071074;28;20563;-76
2023/04/12 04:05:33;;;;;;;2.42;1.38;;;16.30;53.80;;;;;;5072196;28;20270;-78
2023/04/12 04:08:01;;;;;;;2.83;1.20;;;16.30;53.90;;;;;;5071514;28;20254;-76
2023/04/12 04:10:27;;;;;;;1.50;1.20;;;16.30;53.90;;;;;;5072527;28;20257;-75
2023/04/12 04:12:53;;;;;;;1.58;1.17;;;16.30;53.90;;;;;;5070742;28;20183;-76
2023/04/12 04:15:18;;;;;;;1.33;0.95;;;16.30;53.90;;;;;;5072501;28;20237;-75
2023/04/12 04:17:46;;;;;;;3.65;1.00;;;16.30;53.90;;;;;;5071213;28;20178;-75
2023/04/12 04:20:12;;;;;;;3.00;1.20;;;16.30;53.90;;;;;;5071291;28;20218;-74
2023/04/12 04:22:38;;;;;;;1.30;0.93;;;16.30;53.90;;;;;;5072680;28;20547;-77
2023/04/12 04:25:04;;;;;;;4.53;1.50;;;16.30;54.00;;;;;;5072519;28;20266;-82
2023/04/12 04:27:33;;;;;;;1.35;1.15;;;16.30;54.00;;;;;;5071792;28;20179;-79
2023/04/12 04:30:01;;;;;;;1.48;1.10;;;16.20;54.00;;;;;;5072338;28;20226;-74
2023/04/12 04:32:27;;;;;;;3.33;1.48;;;16.30;54.00;;;;;;5072204;28;20174;-72
2023/04/12 04:34:55;;;;;;;3.85;1.67;;;16.20;54.00;;;;;;5071872;28;20178;-73
2023/04/12 04:37:20;;;;;;;1.92;1.20;;;16.20;54.00;;;;;;5072249;28;20220;-74
2023/04/12 04:39:46;;;;;;;1.05;0.95;;;16.30;54.10;;;;;;5072327;28;20641;-74
2023/04/12 04:42:12;;;;;;;3.05;1.27;;;16.20;54.00;;;;;;5071263;28;20205;-75
2023/04/12 04:44:37;;;;;;;2.00;1.20;;;16.30;54.10;;;;;;5070866;28;20202;-76
2023/04/12 04:47:03;;;;;;;1.17;0.95;;;16.20;54.00;;;;;;5071451;28;20501;-77
2023/04/12 04:49:29;;;;;;;1.88;1.27;;;16.20;54.10;;;;;;5072012;28;20232;-78
2023/04/12 04:51:55;;;;;;;1.50;1.00;;;16.20;54.20;;;;;;5072169;28;20170;-78
2023/04/12 04:54:20;;;;;;;1.88;1.23;;;16.20;54.10;;;;;;5071183;28;20246;-74
2023/04/12 04:56:46;;;;;;;2.15;1.15;;;16.20;54.20;;;;;;5071937;28;20575;-75
2023/04/12 04:59:11;;;;;;;1.38;1.00;;;16.20;54.20;;;;;;5071664;28;20222;-76
2023/04/12 05:01:37;;;;;;;2.25;1.33;;;16.20;54.20;;;;;;5071617;28;20202;-74
2023/04/12 05:04:02;;;;;;;1.85;1.02;;;16.20;54.20;;;;;;5072150;28;20389;-76
2023/04/12 05:06:28;;;;;;;1.60;1.20;;;16.20;54.30;;;;;;5071806;28;20253;-75
2023/04/12 05:08:53;;;;;;;1.27;1.00;;;16.20;54.30;;;;;;5071381;28;20189;-77
2023/04/12 05:11:20;;;;;;;1.42;1.00;;;16.20;54.30;;;;;;5071605;28;20213;-75
2023/04/12 05:13:45;;;;;;;1.60;1.17;;;16.20;54.20;;;;;;5071929;28;20523;-74
2023/04/12 05:16:11;;;;;;;1.63;1.02;;;16.20;54.20;;;;;;5071134;28;20621;-75
2023/04/12 05:18:37;;;;;;;1.10;0.82;;;16.20;54.20;;;;;;5072051;28;20175;-75
2023/04/12 05:21:03;;;;;;;1.58;1.08;;;16.20;54.30;;;;;;5071584;28;20225;-76
2023/04/12 05:23:28;;;;;;;3.63;1.15;;;16.20;54.30;;;;;;5070741;28;20206;-75
2023/04/12 05:25:54;;;;;;;1.48;1.10;;;16.10;54.30;;;;;;5071682;28;20200;-80
2023/04/12 05:28:20;;;;;;;1.55;0.93;;;16.20;54.30;;;;;;5071615;28;20171;-73
2023/04/12 05:30:45;;;;;;;2.60;1.00;;;16.20;54.30;;;;;;5071316;28;20231;-73
2023/04/12 05:33:11;;;;;;;1.73;1.10;;;16.10;54.30;;;;;;5071553;28;20692;-74
2023/04/12 05:35:36;;;;;;;0.70;0.70;;;16.20;54.40;;;;;;5071832;28;20185;-73
2023/04/12 05:38:02;;;;;;;1.25;0.90;;;16.10;54.30;;;;;;5071010;28;20184;-75
2023/04/12 05:40:30;;;;;;;1.42;1.25;;;16.20;54.40;;;;;;5073714;28;20174;-72
2023/04/12 05:42:56;;;;;;;1.70;1.08;;;16.10;54.50;;;;;;5075521;28;20537;-77
2023/04/12 05:45:21;;;;;;;1.08;0.93;;;16.10;54.40;;;;;;5074716;28;20182;-77
2023/04/12 05:47:47;;;;;;;1.38;1.05;;;16.10;54.40;;;;;;5075597;28;20178;-76
2023/04/12 05:50:12;;;;;;;2.17;1.15;;;16.10;54.40;;;;;;5075255;28;20621;-78
2023/04/12 05:52:38;;;;;;;1.40;0.95;;;16.10;54.40;;;;;;5074869;28;20170;-76
2023/04/12 05:55:04;;;;;;;1.05;0.80;;;16.10;54.40;;;;;;5075329;28;20237;-75
2023/04/12 05:57:30;;;;;;;2.45;1.20;;;16.10;54.40;;;;;;5074450;28;20201;-74
2023/04/12 05:59:55;;;;;;;2.55;1.08;;;16.20;54.50;;;;;;5075192;28;20261;-75
2023/04/12 06:02:21;;;;;;;1.40;1.20;;;16.20;54.70;;;;;;5074939;28;20185;-74
2023/04/12 06:04:47;;;;;;;1.65;0.90;;;16.20;54.70;;;;;;5074584;28;20214;-78
2023/04/12 06:07:15;;;;;;;1.27;0.80;;;16.30;54.60;;;;;;5073515;28;20629;-79
2023/04/12 06:09:41;;;;;;;1.60;0.80;;;16.40;54.60;;;;;;5075067;28;20652;-77
2023/04/12 06:12:07;;;;;;;1.25;0.88;;;16.50;54.40;;;;;;5073894;28;20181;-76
2023/04/12 06:14:32;;;;;;;1.52;1.10;;;16.50;54.30;;;;;;5075145;28;20254;-71
2023/04/12 06:16:58;;;;;;;0.93;0.68;;;16.50;54.20;;;;;;5075125;28;20540;-76
2023/04/12 06:19:23;;;;;;;1.33;0.80;;;16.60;54.20;;;;;;5073581;28;20680;-73
2023/04/12 06:21:50;;;;;;;1.17;0.80;;;16.60;54.10;;;;;;5073697;28;20313;-76
2023/04/12 06:24:15;;;;;;;1.40;1.02;;;16.70;54.70;;;;;;5074368;28;20582;-77
2023/04/12 06:26:45;;;;;;;1.10;0.82;;;16.80;54.00;;;;;;5074321;28;20166;-78
2023/04/12 06:29:11;;;;;;;1.60;0.85;;;16.90;53.90;;;;;;5075092;28;20186;-74
2023/04/12 06:31:36;;;;;;;1.25;0.80;;;17.00;53.80;;;;;;5075025;28;20181;-73
2023/04/12 06:34:02;;;;;;;2.60;0.88;;;17.00;53.70;;;;;;5074562;28;20204;-72
2023/04/12 06:36:27;;;;;;;1.48;0.88;;;17.10;53.60;;;;;;5074531;28;20539;-71
2023/04/12 06:38:53;;;;;;;2.00;0.80;;;17.20;53.60;;;;;;5074809;28;20181;-74
2023/04/12 06:41:19;;;;;;;2.42;0.90;;;17.30;53.50;;;;;;5073719;28;20170;-71
2023/04/12 06:43:45;;;;;;;1.10;0.80;;;17.30;54.20;;;;;;5074813;28;20659;-72
2023/04/12 06:46:10;;;;;;;0.98;0.80;;;17.30;53.50;;;;;;5074633;28;20182;-71
2023/04/12 06:48:36;;;;;;;1.10;0.77;;;17.40;53.50;;;;;;5074113;28;20196;-76
2023/04/12 06:51:01;;;;;;;2.38;0.80;;;17.50;53.50;;;;;;5074497;28;20175;-79
2023/04/12 06:53:27;;;;;;;2.42;1.10;;;17.40;53.50;;;;;;5074487;28;20175;-74
2023/04/12 06:55:52;;;;;;;2.78;0.90;;;17.50;53.70;;;;;;5073797;28;20253;-77
2023/04/12 06:58:18;;;;;;;1.40;0.70;;;17.50;53.70;;;;;;5075068;28;20167;-78
2023/04/12 07:00:44;;;;;;;2.25;1.00;;;17.50;53.80;;;;;;5074224;28;20177;-79
2023/04/12 07:03:09;;;;;;;1.70;1.10;;;17.50;53.90;;;;;;5074061;28;20209;-78
2023/04/12 07:05:38;;;;;;;0.85;0.70;;;17.50;53.90;;;;;;5074404;28;20174;-74
2023/04/12 07:08:04;;;;;;;1.55;1.00;;;17.40;54.00;;;;;;5073803;28;20210;-75
2023/04/12 07:10:29;;;;;;;2.72;0.60;;;17.40;54.20;;;;;;5074267;28;20651;-74
2023/04/12 07:12:57;;;;;;;2.08;0.95;;;17.30;54.20;;;;;;5074476;28;20175;-74
2023/04/12 07:15:23;;;;;;;1.10;0.90;;;17.30;54.40;;;;;;5073267;28;20262;-76
2023/04/12 07:17:48;;;;;;;1.55;0.82;;;17.30;54.30;;;;;;5074259;28;20195;-73
2023/04/12 07:20:14;;;;;;;2.55;0.80;;;17.20;54.60;;;;;;5073501;28;20760;-73
2023/04/12 07:22:39;;;;;;;1.65;1.13;;;17.20;54.80;;;;;;5073451;28;20261;-70
2023/04/12 07:25:08;;;;;;;1.02;0.80;;;17.20;55.00;;;;;;5073607;28;20259;-70
2023/04/12 07:27:34;;;;;;;1.77;0.80;;;17.20;55.10;;;;;;5074129;28;20186;-70
2023/04/12 07:30:00;;;;;;;0.85;0.82;;;17.20;55.40;;;;;;5073454;28;20269;-72
2023/04/12 07:32:26;;;;;;;3.47;1.00;;;17.20;55.50;;;;;;5073657;28;20265;-73
2023/04/12 07:34:51;;;;;;;1.27;0.93;;;17.20;55.50;;;;;;5073922;28;20262;-72
2023/04/12 07:37:17;;;;;;;3.50;0.98;;;17.20;55.50;;;;;;5072883;28;20253;-71
2023/04/12 07:39:43;;;;;;;1.52;0.68;;;17.10;55.50;;;;;;5073708;28;20601;-70
2023/04/12 07:42:08;;;;;;;1.63;0.80;;;17.10;55.50;;;;;;5073357;28;20265;-69
2023/04/12 07:44:34;;;;;;;1.60;0.95;;;17.10;55.40;;;;;;5073064;28;20245;-71
2023/04/12 07:47:00;;;;;;;2.88;0.77;;;17.10;56.10;;;;;;5073656;28;20174;-70
2023/04/12 07:49:26;;;;;;;1.15;0.85;;;17.10;55.50;;;;;;5073254;28;20208;-68
2023/04/12 07:51:51;;;;;;;1.65;1.00;;;17.10;55.70;;;;;;5072803;28;20202;-68
2023/04/12 07:54:17;;;;;;;1.95;1.00;;;17.10;55.70;;;;;;5073007;28;20179;-69
2023/04/12 07:56:57;;;;;;;1.13;0.80;;;17.00;55.60;;;;;;5073276;28;20530;-70
2023/04/12 07:59:22;;;;;;;2.50;0.90;;;17.00;55.60;;;;;;5071738;28;20182;-70
2023/04/12 08:01:48;;;;;;;2.03;0.90;;;17.00;55.70;;;;;;5073073;28;20183;-68
2023/04/12 08:04:13;;;;;;;2.35;1.23;;;17.00;55.70;;;;;;5071766;28;20198;-75
2023/04/12 08:06:39;;;;;;;2.58;1.08;;;17.00;55.90;;;;;;5076703;28;20177;-75
2023/04/12 08:09:05;;;;;;;1.88;0.77;;;17.00;55.80;;;;;;5076309;28;20170;-75
2023/04/12 08:11:34;;;;;;;2.20;1.08;;;16.90;55.80;;;;;;5091230;28;20185;-80
2023/04/12 08:13:59;;;;;;;1.98;0.80;;;16.90;55.80;;;;;;5089294;28;20180;-78
2023/04/12 08:16:26;;;;;;;1.30;0.68;;;16.90;55.80;;;;;;5072690;28;20265;-83
2023/04/12 08:18:51;;;;;;;1.92;0.88;;;16.90;55.80;;;;;;5072182;28;20189;-78
2023/04/12 08:21:17;;;;;;;1.42;0.80;;;16.80;55.70;;;;;;5072290;28;20594;-74
2023/04/12 08:23:42;;;;;;;1.38;0.70;;;16.90;55.70;;;;;;5086597;28;20210;-72
2023/04/12 08:26:08;;;;;;;0.90;0.65;;;16.90;55.70;;;;;;5091170;28;20181;-71
2023/04/12 08:28:34;;;;;;;2.70;1.27;;;16.90;55.70;;;;;;5093014;28;20173;-73
2023/04/12 08:30:59;;;;;;;1.90;0.73;;;16.80;55.60;;;;;;5092932;28;20208;-77
2023/04/12 08:33:25;;;;;;;1.88;0.80;;;16.90;55.60;;;;;;5090982;28;20177;-71
2023/04/12 08:35:51;;;;;;;1.83;0.90;;;16.90;55.70;;;;;;5092758;28;20173;-70
2023/04/12 08:38:17;;;;;;;1.55;0.80;;;16.90;56.20;;;;;;5092764;28;20181;-70
2023/04/12 08:40:43;;;;;;;2.38;1.00;;;16.90;55.50;;;;;;5078792;28;20547;-70
2023/04/12 08:43:08;;;;;;;1.83;0.75;;;16.90;55.40;;;;;;5072306;28;20213;-68
2023/04/12 08:45:34;;;;;;;1.52;0.85;;;17.00;55.50;;;;;;5071602;28;20166;-69
2023/04/12 08:48:01;;;;;;;1.70;0.90;;;17.00;55.50;;;;;;5072086;28;20166;-68
2023/04/12 08:50:27;;;;;;;0.98;0.70;;;17.00;55.50;;;;;;5070892;28;20533;-68
2023/04/12 08:52:53;;;;;;;1.98;0.90;;;17.00;55.50;;;;;;5071285;28;20178;-67
2023/04/12 08:55:18;;;;;;;1.70;0.70;;;17.00;55.40;;;;;;5071731;28;20185;-68
2023/04/12 08:57:44;;;;;;;1.90;0.82;;;17.00;55.40;;;;;;5072104;28;20174;-69
2023/04/12 09:00:11;;;;;;;5.35;0.90;;;17.00;55.50;;;;;;5070637;28;20265;-71
2023/04/12 09:02:37;;;;;;;1.85;0.93;;;17.00;55.50;;;;;;5071823;28;20645;-71
2023/04/12 09:05:03;;;;;;;0.80;0.63;;;17.00;55.60;;;;;;5072577;28;20229;-70
2023/04/12 09:07:30;;;;;;;1.15;0.60;;;17.00;55.60;;;;;;5071460;28;20178;-71
2023/04/12 09:09:56;;;;;;;2.90;1.02;;;17.00;55.70;;;;;;5072698;28;20264;-71
2023/04/12 09:12:23;;;;;;;1.80;0.70;;;17.00;55.70;;;;;;5072148;28;20617;-75
2023/04/12 09:15:07;;;;;;;1.45;0.80;;;17.00;55.60;;;;;;5085800;28;20260;-73
2023/04/12 09:17:35;;;;;;;1.20;0.77;;;17.00;55.50;;;;;;5096389;28;20624;-74
2023/04/12 09:20:01;;;;;;;1.80;0.85;;;17.00;55.40;;;;;;5096663;28;20225;-73
2023/04/12 09:22:38;;;;;;;4.05;1.45;;;17.00;55.40;;;;;;5095890;28;20219;-71
2023/04/12 09:25:04;;;;;;;2.25;1.10;;;16.90;55.50;;;;;;5096672;28;20380;-72
2023/04/12 09:27:44;;;;;;;6.18;1.17;;;17.00;55.70;;;;;;5095342;28;20177;-68
2023/04/12 09:30:10;;;;;;;4.32;1.23;;;17.00;55.60;;;;;;5094429;28;20272;-70
2023/04/12 09:32:35;;;;;;;5.88;1.10;;;17.00;55.50;;;;;;5096503;28;20173;-71
2023/04/12 09:35:02;;;;;;;2.38;0.80;;;17.00;55.50;;;;;;5095312;28;20200;-69
2023/04/12 09:37:27;;;;;;;2.45;0.88;;;17.00;55.60;;;;;;5095435;28;20185;-69
2023/04/12 09:39:59;;;;;;;2.80;0.90;;;17.10;55.50;;;;;;5096531;28;20166;-68
2023/04/12 09:42:25;;;;;;;0.88;0.73;;;17.10;55.40;;;;;;5095410;28;20186;-69
2023/04/12 09:44:52;;;;;;;1.98;0.93;;;17.10;55.50;;;;;;5096279;28;20205;-70
2023/04/12 09:47:18;;;;;;;2.40;0.90;;;17.10;55.40;;;;;;5091737;28;20205;-68
2023/04/12 09:49:43;;;;;;;3.95;1.05;;;17.20;55.50;;;;;;5075306;28;20637;-68
2023/04/12 09:52:10;;;;;;;1.92;0.70;;;17.20;55.40;;;;;;5075511;28;20177;-68
2023/04/12 09:54:48;;;;;;;1.90;0.75;;;17.20;55.50;;;;;;5075661;28;20210;-69
2023/04/12 09:57:15;;;;;;;4.93;1.00;;;17.30;55.40;;;;;;5073411;28;20649;-69
2023/04/12 09:59:41;;;;;;;2.35;0.85;;;17.30;55.30;;;;;;5074745;28;20189;-68
2023/04/12 10:02:10;;;;;;;5.55;1.00;;;17.40;55.30;;;;;;5075359;28;20178;-79
2023/04/12 10:04:36;;;;;;;4.53;1.20;;;17.40;55.30;;;;;;5073824;28;20563;-77
2023/04/12 10:07:02;;;;;;;1.75;1.00;;;17.40;55.30;;;;;;5075576;28;20174;-77
2023/04/12 10:09:27;;;;;;;2.78;1.00;;;17.40;55.30;;;;;;5074218;28;20181;-87
2023/04/12 10:11:53;;;;;;;2.25;0.93;;;17.30;55.30;;;;;;5074042;28;20175;-87
2023/04/12 10:14:19;;;;;;;3.88;1.00;;;17.30;55.40;;;;;;5057111;28;20175;-75
2023/04/12 10:16:44;;;;;;;2.35;1.10;;;17.30;55.40;;;;;;5054839;28;20668;-89
2023/04/12 10:19:10;;;;;;;1.65;1.13;;;17.30;55.40;;;;;;5054140;28;20179;-78
2023/04/12 10:21:36;;;;;;;1.25;0.88;;;17.30;55.50;;;;;;5055472;28;20696;-82
2023/04/12 10:24:01;;;;;;;3.28;1.20;;;17.30;55.50;;;;;;5055784;28;20209;-81
2023/04/12 10:26:27;;;;;;;2.85;1.02;;;17.30;55.50;;;;;;5052308;28;20531;-74
2023/04/12 10:29:24;;;;;;;4.00;1.60;;;17.30;55.60;;;;;;5054103;28;20635;-73
2023/04/12 10:31:50;;;;;;;2.30;0.85;;;17.30;55.70;;;;;;5054307;28;20191;-77
2023/04/12 10:34:16;;;;;;;1.77;0.70;;;17.30;55.70;;;;;;5055055;28;20171;-80
2023/04/12 10:36:52;;;;;;;2.38;1.08;;;17.30;55.70;;;;;;5054787;28;20654;-80
2023/04/12 10:39:18;;;;;;;3.13;1.15;;;17.30;55.70;;;;;;5053963;28;20232;-74
2023/04/12 10:42:22;;;;;;;1.63;1.20;;;17.30;55.80;;;;;;5054902;28;20179;-78
2023/04/12 10:44:52;;;;;;;2.55;1.00;;;17.30;55.90;;;;;;5054455;28;20782;-74
2023/04/12 10:47:49;;;;;;;1.58;0.80;;;17.40;55.90;;;;;;5053561;28;20552;-74
2023/04/12 10:50:28;;;;;;;2.55;0.98;;;17.40;55.90;;;;;;5054266;28;20179;-73
2023/04/12 10:53:20;;;;;;;2.33;1.10;;;17.40;55.90;;;;;;5053978;28;20258;-76
2023/04/12 10:55:46;;;;;;;5.72;1.55;;;17.40;56.00;;;;;;5054768;28;20172;-76
2023/04/12 10:58:46;;;;;;;2.58;1.00;;;17.40;56.00;;;;;;5054394;28;20182;-75
2023/04/12 11:01:12;;;;;;;1.77;1.05;;;17.40;56.30;;;;;;5053221;28;20177;-78
2023/04/12 11:04:07;;;;;;;2.50;1.20;;;17.30;56.80;;;;;;5054275;28;20211;-77
2023/04/12 11:06:45;;;;;;;2.38;1.08;;;17.30;56.30;;;;;;5054423;28;20171;-74
2023/04/12 11:09:27;;;;;;;2.78;1.10;;;17.30;56.40;;;;;;5053289;28;20178;-76
2023/04/12 11:12:02;;;;;;;3.10;0.95;;;17.20;56.40;;;;;;5054045;28;20183;-73
2023/04/12 11:14:34;;;;;;;1.25;0.93;;;17.20;56.50;;;;;;5053128;28;20175;-74
2023/04/12 11:17:08;;;;;;;2.35;1.35;;;17.10;56.50;;;;;;5054056;28;20266;-79
2023/04/12 11:19:43;;;;;;;2.42;1.00;;;17.10;56.40;;;;;;5053846;28;20228;-72
2023/04/12 11:22:11;;;;;;;2.20;0.95;;;17.00;56.30;;;;;;5052926;28;20268;-74
2023/04/12 11:24:37;;;;;;;3.85;1.38;;;17.00;56.40;;;;;;5053820;28;20219;-75
2023/04/12 11:27:03;;;;;;;2.38;1.17;;;17.00;56.40;;;;;;5054091;28;20216;-75
2023/04/12 11:29:31;;;;;;;1.92;0.98;;;17.00;56.50;;;;;;5053008;28;20253;-80
2023/04/12 11:31:57;;;;;;;1.20;0.85;;;17.00;56.50;;;;;;5053946;28;20634;-83
2023/04/12 11:34:22;;;;;;;2.60;1.33;;;17.00;56.50;;;;;;5054916;28;20240;-75
2023/04/12 11:36:51;;;;;;;2.90;1.38;;;17.10;56.40;;;;;;5052577;28;20241;-80
2023/04/12 11:39:17;;;;;;;2.20;1.10;;;17.10;56.30;;;;;;5053063;28;20184;-74
2023/04/12 11:41:44;;;;;;;2.58;1.00;;;17.10;56.20;;;;;;5053883;28;20183;-79
2023/04/12 11:44:09;;;;;;;2.60;1.50;;;17.10;56.10;;;;;;5052737;28;20571;-78
2023/04/12 11:46:35;;;;;;;2.63;1.55;;;17.10;56.10;;;;;;5053561;28;20229;-76
2023/04/12 11:49:00;;;;;;;3.25;1.38;;;17.20;56.20;;;;;;5053322;28;20194;-77
2023/04/12 11:51:29;;;;;;;2.15;0.70;;;17.10;56.30;;;;;;5052881;28;20525;-76
2023/04/12 11:53:55;;;;;;;2.67;1.25;;;17.10;56.20;;;;;;5053333;28;20213;-76
2023/04/12 11:56:21;;;;;;;2.83;1.05;;;17.10;56.30;;;;;;5052514;28;20174;-75
2023/04/12 11:58:47;;;;;;;3.88;1.10;;;17.10;56.30;;;;;;5054158;28;20701;-78
2023/04/12 12:01:15;;;;;;;3.05;1.40;;;17.10;56.30;;;;;;5053108;28;20231;-79
2023/04/12 12:03:41;;;;;;;3.72;1.42;;;17.10;56.30;;;;;;5051186;28;20553;-77
2023/04/12 12:06:07;;;;;;;2.88;1.05;;;17.10;56.30;;;;;;5052812;28;20316;-75
2023/04/12 12:08:33;;;;;;;2.17;1.05;;;17.10;56.20;;;;;;5052092;28;20231;-72
2023/04/12 12:10:58;;;;;;;3.25;1.20;;;17.00;56.30;;;;;;5051215;28;20254;-76
2023/04/12 12:13:24;;;;;;;2.13;1.10;;;17.00;56.20;;;;;;5051425;28;20878;-74
2023/04/12 12:15:52;;;;;;;2.25;1.10;;;17.00;56.20;;;;;;5052902;28;20190;-75
2023/04/12 12:18:18;;;;;;;1.90;1.20;;;17.00;56.30;;;;;;5051947;28;20253;-73
2023/04/12 12:20:47;;;;;;;4.18;1.58;;;17.00;56.40;;;;;;5052904;28;20227;-74
2023/04/12 12:23:35;;;;;;;5.03;1.60;;;17.00;56.20;;;;;;5052613;28;20195;-73
2023/04/12 12:26:02;;;;;;;3.50;1.23;;;17.00;56.20;;;;;;5052231;28;20178;-76
2023/04/12 12:28:37;;;;;;;2.22;1.20;;;17.00;56.10;;;;;;5052163;28;20290;-77
2023/04/12 12:31:08;;;;;;;4.07;1.35;;;17.00;56.10;;;;;;5051526;28;20187;-83
2023/04/12 12:33:37;;;;;;;3.72;1.30;;;17.00;56.10;;;;;;5051750;28;20536;-82
2023/04/12 12:36:03;;;;;;;3.92;1.45;;;17.00;56.10;;;;;;5052848;28;20270;-77
2023/04/12 12:38:37;;;;;;;2.08;1.10;;;17.00;56.10;;;;;;5051570;28;20254;-73
2023/04/12 12:41:22;;;;;;;1.52;1.08;;;17.00;56.00;;;;;;5052379;28;20201;-76
2023/04/12 12:43:50;;;;;;;3.22;1.20;;;17.10;56.00;;;;;;5051228;28;20214;-78
2023/04/12 12:46:17;;;;;;;1.92;0.90;;;17.10;55.80;;;;;;5051522;28;20178;-81
2023/04/12 12:48:46;;;;;;;2.78;1.60;;;17.00;55.80;;;;;;5052281;28;20210;-77
2023/04/12 12:51:16;;;;;;;2.42;1.20;;;17.20;55.90;;;;;;5051709;28;20175;-76